Time;durP1;ratioP1;P1;durP2;ratioP2;P2;SDS_P1;SDS_P2;PMS_P1;PMS_P2;Temp;Humidity;BMP_temperature;BMP_pressure;BME280_temperature;BME280_humidity;BME280_pressure;Samples;Min_cycle;Max_cycle;Signal;HPM_P1;HPM_P2
2023/11/21 00:01:57;;;;;;;35.10;14.17;;;8.70;99.90;;;;;;5071528;28;20033;-81
2023/11/21 00:04:23;;;;;;;31.67;14.93;;;8.80;99.90;;;;;;5063746;28;20037;-83
2023/11/21 00:06:51;;;;;;;37.23;15.20;;;8.70;99.90;;;;;;5054896;28;20056;-81
2023/11/21 00:09:17;;;;;;;28.47;13.60;;;8.70;99.90;;;;;;5066465;28;20088;-81
2023/11/21 00:11:45;;;;;;;43.87;17.37;;;8.80;99.90;;;;;;5054177;28;20021;-79
2023/11/21 00:14:11;;;;;;;27.80;15.27;;;8.70;99.90;;;;;;5067197;28;20029;-82
2023/11/21 00:16:44;;;;;;;33.57;13.83;;;8.80;99.90;;;;;;5088654;28;20032;-80
2023/11/21 00:19:11;;;;;;;35.53;15.03;;;8.60;99.90;;;;;;5077097;28;20040;-79
2023/11/21 00:21:40;;;;;;;33.97;14.57;;;8.70;99.90;;;;;;5076712;28;20028;-78
2023/11/21 00:24:07;;;;;;;42.47;17.07;;;8.80;99.90;;;;;;5078215;28;20013;-78
2023/11/21 00:26:36;;;;;;;30.30;15.87;;;8.80;99.90;;;;;;5080389;28;20032;-75
2023/11/21 00:29:07;;;;;;;34.93;15.87;;;8.70;99.90;;;;;;5078551;28;20033;-78
2023/11/21 00:31:38;;;;;;;38.30;15.93;;;8.70;99.90;;;;;;5080407;28;20017;-77
2023/11/21 00:34:07;;;;;;;37.30;15.13;;;8.80;99.90;;;;;;5079233;28;20058;-80
2023/11/21 00:36:32;;;;;;;40.10;16.80;;;8.70;99.90;;;;;;5080767;28;20032;-78
2023/11/21 00:39:01;;;;;;;36.23;17.33;;;8.70;99.90;;;;;;5081638;28;21300;-79
2023/11/21 00:41:30;;;;;;;41.33;17.43;;;8.60;99.90;;;;;;5081780;28;20048;-79
2023/11/21 00:43:56;;;;;;;39.10;17.80;;;8.60;99.90;;;;;;5081803;28;20040;-78
2023/11/21 00:46:28;;;;;;;39.97;18.67;;;8.60;99.90;;;;;;5081144;28;20032;-78
2023/11/21 00:48:54;;;;;;;42.87;18.97;;;8.70;99.90;;;;;;5081071;28;20036;-76
2023/11/21 00:51:20;;;;;;;35.60;17.93;;;8.70;99.90;;;;;;5080911;28;20033;-78
2023/11/21 00:53:47;;;;;;;46.57;19.50;;;8.70;99.90;;;;;;5079960;28;20487;-76
2023/11/21 00:56:13;;;;;;;44.63;20.67;;;8.70;99.90;;;;;;5081323;28;20024;-76
2023/11/21 00:58:42;;;;;;;41.63;20.63;;;8.70;99.90;;;;;;5079294;28;20029;-78
2023/11/21 01:01:08;;;;;;;44.50;20.17;;;8.70;99.90;;;;;;5078498;28;20070;-77
2023/11/21 01:03:36;;;;;;;42.50;20.40;;;8.60;99.90;;;;;;5080361;28;20009;-75
2023/11/21 01:06:01;;;;;;;44.60;20.17;;;8.50;99.90;;;;;;5081382;28;20029;-77
2023/11/21 01:08:27;;;;;;;47.70;20.03;;;8.60;99.90;;;;;;5078467;28;20848;-80
2023/11/21 01:10:53;;;;;;;46.20;20.47;;;8.50;99.90;;;;;;5080863;28;20019;-78
2023/11/21 01:13:19;;;;;;;40.87;19.47;;;8.50;99.90;;;;;;5079080;28;20044;-77
2023/11/21 01:15:50;;;;;;;46.27;19.90;;;8.40;99.90;;;;;;5082353;28;20021;-78
2023/11/21 01:18:18;;;;;;;41.87;20.47;;;8.60;99.90;;;;;;5081536;28;21117;-79
2023/11/21 01:20:45;;;;;;;42.27;19.97;;;8.50;99.90;;;;;;5079797;28;20032;-76
2023/11/21 01:23:13;;;;;;;42.10;20.40;;;8.50;99.90;;;;;;5079453;28;20049;-75
2023/11/21 01:25:39;;;;;;;45.40;21.70;;;8.50;99.90;;;;;;5078817;28;20029;-78
2023/11/21 01:28:04;;;;;;;45.67;19.57;;;8.50;99.90;;;;;;5079825;28;20020;-78
2023/11/21 01:30:31;;;;;;;45.60;20.67;;;8.40;99.90;;;;;;5062845;28;20044;-78
2023/11/21 01:32:56;;;;;;;52.07;21.27;;;8.50;99.90;;;;;;5080508;28;20029;-76
2023/11/21 01:35:22;;;;;;;57.87;21.13;;;8.40;99.90;;;;;;5078258;28;20059;-78
2023/11/21 01:37:48;;;;;;;53.00;22.37;;;8.30;99.90;;;;;;5076528;28;20021;-78
2023/11/21 01:40:14;;;;;;;54.43;22.10;;;8.30;99.90;;;;;;5078948;28;20048;-78
2023/11/21 01:42:41;;;;;;;55.43;21.27;;;8.20;99.90;;;;;;5078017;28;20025;-77
2023/11/21 01:45:07;;;;;;;68.03;22.50;;;8.20;99.90;;;;;;5081049;28;20064;-75
2023/11/21 01:47:34;;;;;;;61.37;23.27;;;8.20;99.90;;;;;;5076607;28;20037;-76
2023/11/21 01:50:00;;;;;;;56.07;21.83;;;8.20;99.90;;;;;;5077195;28;20096;-77
2023/11/21 01:52:29;;;;;;;60.80;22.20;;;8.20;99.90;;;;;;5078851;28;20029;-77
2023/11/21 01:55:03;;;;;;;53.17;23.70;;;8.20;99.90;;;;;;5079406;28;20025;-79
2023/11/21 01:57:29;;;;;;;63.50;24.23;;;8.40;99.90;;;;;;5079137;28;20036;-78
2023/11/21 01:59:56;;;;;;;72.13;23.47;;;8.30;99.90;;;;;;5077807;28;20131;-78
2023/11/21 02:02:21;;;;;;;54.87;21.27;;;8.40;99.90;;;;;;5066446;28;20062;-78
2023/11/21 02:04:55;;;;;;;53.50;22.37;;;8.40;99.90;;;;;;5078900;28;20052;-77
2023/11/21 02:07:23;;;;;;;60.03;23.30;;;8.50;99.90;;;;;;5078503;28;21286;-78
2023/11/21 02:09:49;;;;;;;46.23;22.00;;;8.40;99.90;;;;;;5094991;28;20040;-80
2023/11/21 02:12:15;;;;;;;53.53;22.57;;;8.40;99.90;;;;;;5077978;28;20029;-79
2023/11/21 02:14:45;;;;;;;53.97;21.97;;;8.40;99.90;;;;;;5077770;28;20023;-77
2023/11/21 02:17:13;;;;;;;51.53;22.97;;;8.40;99.90;;;;;;5076211;28;20358;-77
2023/11/21 02:19:38;;;;;;;67.53;22.87;;;8.30;99.90;;;;;;5079490;28;20028;-80
2023/11/21 02:22:06;;;;;;;56.83;22.57;;;8.40;99.90;;;;;;5079570;28;20028;-77
2023/11/21 02:24:32;;;;;;;50.63;22.50;;;8.30;99.90;;;;;;5077682;28;20093;-75
2023/11/21 02:26:58;;;;;;;57.43;23.43;;;8.40;99.90;;;;;;5078878;28;20029;-77
2023/11/21 02:29:27;;;;;;;57.43;23.87;;;8.40;99.90;;;;;;5079032;28;20029;-80
2023/11/21 02:31:54;;;;;;;55.43;22.83;;;8.40;99.90;;;;;;5076827;28;20102;-76
2023/11/21 02:34:24;;;;;;;46.10;21.70;;;8.40;99.90;;;;;;5078448;28;20029;-80
2023/11/21 02:36:51;;;;;;;70.07;23.57;;;8.30;99.90;;;;;;5077513;28;20097;-78
2023/11/21 02:39:21;;;;;;;62.27;22.70;;;8.30;99.90;;;;;;5076620;28;20029;-78
2023/11/21 02:41:52;;;;;;;50.40;21.60;;;8.30;99.90;;;;;;5077746;28;20024;-77
2023/11/21 02:44:17;;;;;;;51.23;21.47;;;8.40;99.90;;;;;;5079644;28;20039;-80
2023/11/21 02:46:43;;;;;;;50.03;21.60;;;8.30;99.90;;;;;;5078300;28;20298;-77
2023/11/21 02:49:11;;;;;;;58.70;22.70;;;8.30;99.90;;;;;;5078049;28;20033;-78
2023/11/21 02:51:41;;;;;;;49.63;23.43;;;8.30;99.90;;;;;;5078406;28;20109;-79
2023/11/21 02:54:10;;;;;;;58.80;23.23;;;8.30;99.90;;;;;;5076774;28;20150;-76
2023/11/21 02:56:37;;;;;;;59.23;25.30;;;8.40;99.90;;;;;;5079521;28;20020;-76
2023/11/21 02:59:03;;;;;;;50.10;24.43;;;8.20;99.90;;;;;;5080583;28;20021;-76
2023/11/21 03:01:29;;;;;;;59.33;26.67;;;8.20;99.90;;;;;;5078757;28;20036;-79
2023/11/21 03:04:02;;;;;;;62.93;26.00;;;8.20;99.90;;;;;;5078968;28;20279;-76
2023/11/21 03:06:29;;;;;;;66.23;27.83;;;8.30;99.90;;;;;;5079676;28;20029;-76
2023/11/21 03:08:57;;;;;;;63.27;27.07;;;8.20;99.90;;;;;;5077819;28;20092;-77
2023/11/21 03:11:25;;;;;;;62.23;27.83;;;8.20;99.90;;;;;;5077847;28;20060;-78
2023/11/21 03:13:53;;;;;;;68.37;27.73;;;8.20;99.90;;;;;;5076852;28;20032;-78
2023/11/21 03:16:21;;;;;;;67.70;28.00;;;8.20;99.90;;;;;;5078618;28;20020;-78
2023/11/21 03:18:47;;;;;;;70.07;29.43;;;8.20;99.90;;;;;;5076775;28;20092;-77
2023/11/21 03:21:13;;;;;;;82.73;29.87;;;8.30;99.90;;;;;;5075851;28;20039;-76
2023/11/21 03:23:40;;;;;;;82.13;29.40;;;8.20;99.90;;;;;;5078613;28;20088;-77
2023/11/21 03:26:08;;;;;;;75.50;30.37;;;8.20;99.90;;;;;;5060197;28;20040;-81
2023/11/21 03:28:39;;;;;;;65.67;28.80;;;8.30;99.90;;;;;;5076015;28;20089;-78
2023/11/21 03:31:10;;;;;;;65.87;28.33;;;8.40;99.90;;;;;;5077353;28;20093;-76
2023/11/21 03:33:36;;;;;;;69.27;28.47;;;8.30;99.90;;;;;;5077864;28;20055;-78
2023/11/21 03:36:03;;;;;;;89.00;28.30;;;8.30;99.90;;;;;;5076017;28;20185;-79
2023/11/21 03:38:31;;;;;;;79.10;27.93;;;8.30;99.90;;;;;;5075859;28;20020;-77
2023/11/21 03:40:57;;;;;;;72.73;28.43;;;8.30;99.90;;;;;;5075864;28;20043;-78
2023/11/21 03:43:24;;;;;;;66.83;27.40;;;8.20;99.90;;;;;;5075635;28;20028;-78
2023/11/21 03:45:50;;;;;;;67.20;27.57;;;8.30;99.90;;;;;;5073443;28;20100;-78
2023/11/21 03:48:16;;;;;;;66.90;26.07;;;8.30;99.90;;;;;;5075003;28;20040;-79
2023/11/21 03:50:41;;;;;;;77.27;28.10;;;8.30;99.90;;;;;;5077508;28;20029;-76
2023/11/21 03:53:09;;;;;;;68.80;27.70;;;8.30;99.90;;;;;;5078615;28;20036;-78
2023/11/21 03:55:35;;;;;;;74.07;27.93;;;8.30;99.90;;;;;;5077685;28;20055;-78
2023/11/21 03:58:05;;;;;;;68.30;28.20;;;8.30;99.90;;;;;;5079122;28;20036;-77
2023/11/21 04:00:30;;;;;;;63.30;25.77;;;8.30;99.90;;;;;;5085764;28;20037;-79
2023/11/21 04:02:56;;;;;;;71.80;27.90;;;8.30;99.90;;;;;;5080105;28;20056;-76
2023/11/21 04:05:23;;;;;;;64.60;26.50;;;8.30;99.90;;;;;;5082352;28;20051;-79
2023/11/21 04:07:50;;;;;;;66.23;26.57;;;8.20;99.90;;;;;;5086842;28;20059;-81
2023/11/21 04:10:17;;;;;;;70.97;28.53;;;8.20;99.90;;;;;;5078803;28;20036;-77
2023/11/21 04:12:42;;;;;;;64.43;27.83;;;8.30;99.90;;;;;;5079258;28;20025;-77
2023/11/21 04:15:09;;;;;;;65.50;27.27;;;8.20;99.90;;;;;;5081631;28;20029;-78
2023/11/21 04:17:36;;;;;;;77.23;26.93;;;8.30;99.90;;;;;;5080529;28;20032;-77
2023/11/21 04:20:08;;;;;;;92.40;29.40;;;8.30;99.90;;;;;;5079311;28;20028;-79
2023/11/21 04:22:34;;;;;;;61.37;26.17;;;8.30;99.90;;;;;;5081685;28;20084;-78
2023/11/21 04:25:00;;;;;;;85.30;26.57;;;8.30;99.90;;;;;;5078255;28;20288;-78
2023/11/21 04:27:25;;;;;;;74.37;28.27;;;8.30;99.90;;;;;;5075922;28;20044;-79
2023/11/21 04:29:51;;;;;;;81.77;28.17;;;8.30;99.90;;;;;;5081567;28;20032;-78
2023/11/21 04:32:16;;;;;;;76.40;26.67;;;8.40;99.90;;;;;;5079722;28;21907;-78
2023/11/21 04:34:44;;;;;;;63.57;26.50;;;8.30;99.90;;;;;;5078903;28;20025;-78
2023/11/21 04:37:11;;;;;;;64.47;26.53;;;8.30;99.90;;;;;;5080010;28;20021;-77
2023/11/21 04:39:44;;;;;;;72.33;29.07;;;8.30;99.90;;;;;;5081094;28;20270;-75
2023/11/21 04:42:12;;;;;;;62.57;27.00;;;8.30;99.90;;;;;;5083536;28;20036;-81
2023/11/21 04:44:43;;;;;;;67.53;26.57;;;8.20;99.90;;;;;;5095725;28;20028;-78
2023/11/21 04:47:09;;;;;;;75.53;28.47;;;8.30;99.90;;;;;;5089452;28;20042;-81
2023/11/21 04:49:35;;;;;;;66.57;27.37;;;8.20;99.90;;;;;;5087256;28;20028;-82
2023/11/21 04:52:05;;;;;;;72.37;27.60;;;8.30;99.90;;;;;;5090523;28;20025;-79
2023/11/21 04:54:31;;;;;;;67.33;27.50;;;8.30;99.90;;;;;;5090735;28;20516;-78
2023/11/21 04:57:00;;;;;;;60.50;24.43;;;8.20;99.90;;;;;;5077838;28;20036;-80
2023/11/21 04:59:26;;;;;;;77.10;26.57;;;8.30;99.90;;;;;;5094390;28;20077;-80
2023/11/21 05:02:02;;;;;;;75.30;26.80;;;8.30;99.90;;;;;;5086359;28;20025;-81
2023/11/21 05:04:30;;;;;;;74.90;25.83;;;8.30;99.90;;;;;;5095613;28;20032;-79
2023/11/21 05:06:55;;;;;;;71.13;26.07;;;8.30;99.90;;;;;;5088595;28;20024;-79
2023/11/21 05:09:22;;;;;;;65.77;25.00;;;8.30;99.90;;;;;;5087858;28;20042;-79
2023/11/21 05:11:48;;;;;;;64.27;25.13;;;8.30;99.90;;;;;;5094931;28;20032;-81
2023/11/21 05:14:18;;;;;;;64.80;24.37;;;8.10;99.90;;;;;;5094243;28;20028;-79
2023/11/21 05:16:44;;;;;;;61.80;25.83;;;8.00;99.90;;;;;;5085236;28;20048;-79
2023/11/21 05:19:13;;;;;;;59.80;24.63;;;8.30;99.90;;;;;;5094308;28;20032;-80
2023/11/21 05:21:38;;;;;;;63.63;23.73;;;8.20;99.90;;;;;;5095184;28;20031;-81
2023/11/21 05:24:05;;;;;;;61.10;25.23;;;8.10;99.90;;;;;;5093929;28;20039;-80
2023/11/21 05:26:42;;;;;;;84.43;25.47;;;8.10;99.90;;;;;;5093080;28;20090;-79
2023/11/21 05:29:10;;;;;;;74.67;27.63;;;8.10;99.90;;;;;;5095249;28;20033;-81
2023/11/21 05:31:36;;;;;;;57.83;25.37;;;8.00;99.90;;;;;;5093738;28;20102;-80
2023/11/21 05:34:04;;;;;;;79.67;27.63;;;8.10;99.90;;;;;;5080528;28;20033;-81
2023/11/21 05:39:46;;;;;;;73.73;23.63;;;8.10;99.90;;;;;;5085613;28;20041;-78
2023/11/21 05:42:12;;;;;;;73.43;26.63;;;8.10;99.90;;;;;;5094685;28;20024;-78
2023/11/21 05:44:43;;;;;;;71.30;25.50;;;8.10;99.90;;;;;;5094654;28;20107;-81
2023/11/21 05:47:10;;;;;;;66.00;24.47;;;8.10;99.90;;;;;;5096525;28;20032;-78
2023/11/21 05:49:36;;;;;;;78.17;26.30;;;8.20;99.90;;;;;;5082399;28;20024;-79
2023/11/21 05:52:05;;;;;;;81.57;28.70;;;8.10;99.90;;;;;;5091570;28;20020;-80
2023/11/21 05:54:30;;;;;;;63.17;23.87;;;8.00;99.90;;;;;;5095625;28;20028;-78
2023/11/21 05:56:56;;;;;;;59.20;25.60;;;8.00;99.90;;;;;;5086304;28;20035;-79
2023/11/21 05:59:24;;;;;;;60.37;23.80;;;8.00;99.90;;;;;;5091739;28;20023;-77
2023/11/21 06:01:49;;;;;;;72.30;25.30;;;7.90;99.90;;;;;;5082657;28;20008;-76
2023/11/21 06:04:15;;;;;;;63.13;25.27;;;8.00;99.90;;;;;;5058536;28;20036;-80
2023/11/21 06:06:41;;;;;;;60.47;25.30;;;7.90;99.90;;;;;;5086297;28;20052;-79
2023/11/21 06:09:09;;;;;;;77.67;24.67;;;7.90;99.90;;;;;;5083100;28;20064;-78
2023/11/21 06:11:35;;;;;;;84.90;23.97;;;8.00;99.90;;;;;;5090955;28;20017;-78
2023/11/21 06:14:00;;;;;;;83.07;26.07;;;8.00;99.90;;;;;;5094188;28;20013;-78
2023/11/21 06:16:27;;;;;;;92.93;25.70;;;8.00;99.90;;;;;;5095655;28;20043;-79
2023/11/21 06:18:53;;;;;;;82.87;26.63;;;8.00;99.90;;;;;;5077583;28;20032;-76
2023/11/21 06:21:22;;;;;;;78.83;29.00;;;8.00;99.90;;;;;;5086174;28;20092;-78
2023/11/21 06:23:47;;;;;;;76.67;28.37;;;8.10;99.90;;;;;;5080798;28;20036;-77
2023/11/21 06:26:16;;;;;;;75.83;27.63;;;8.10;99.90;;;;;;5078883;28;20029;-75
2023/11/21 06:28:45;;;;;;;67.30;25.40;;;8.00;99.90;;;;;;5081228;28;20293;-75
2023/11/21 06:31:10;;;;;;;70.97;26.17;;;7.90;99.90;;;;;;5080641;28;20027;-76
2023/11/21 06:33:36;;;;;;;82.93;29.50;;;8.00;99.90;;;;;;5080499;28;20009;-76
2023/11/21 06:36:11;;;;;;;74.67;28.17;;;8.00;99.90;;;;;;5082159;28;20056;-76
2023/11/21 06:38:39;;;;;;;73.50;27.80;;;7.90;99.90;;;;;;5098637;28;20025;-74
2023/11/21 06:41:05;;;;;;;71.97;27.93;;;8.00;99.90;;;;;;5079587;28;20088;-78
2023/11/21 06:43:31;;;;;;;71.70;29.33;;;8.00;99.90;;;;;;5079472;28;20040;-80
2023/11/21 06:45:57;;;;;;;86.00;30.70;;;8.00;99.90;;;;;;5078569;28;20021;-77
2023/11/21 06:48:23;;;;;;;82.73;29.80;;;7.90;99.90;;;;;;5079830;28;20029;-76
2023/11/21 06:50:49;;;;;;;78.30;28.77;;;8.00;99.90;;;;;;5081301;28;20021;-76
2023/11/21 06:53:20;;;;;;;85.83;30.77;;;8.00;99.90;;;;;;5080901;28;20373;-76
2023/11/21 06:55:48;;;;;;;93.70;32.53;;;7.90;99.90;;;;;;5079997;28;20017;-72
2023/11/21 06:58:15;;;;;;;94.27;32.07;;;8.00;99.90;;;;;;5079922;28;20046;-74
2023/11/21 07:00:46;;;;;;;114.73;32.20;;;7.90;99.90;;;;;;5077631;28;20051;-76
2023/11/21 07:03:12;;;;;;;103.97;34.23;;;7.90;99.90;;;;;;5077707;28;20031;-79
2023/11/21 07:05:40;;;;;;;89.93;31.93;;;8.00;99.90;;;;;;5076394;28;20029;-77
2023/11/21 07:08:07;;;;;;;96.30;32.50;;;8.00;99.90;;;;;;5075749;28;20043;-78
2023/11/21 07:10:40;;;;;;;88.87;31.77;;;8.00;99.90;;;;;;5076975;28;20058;-77
2023/11/21 07:13:12;;;;;;;113.00;31.03;;;7.90;99.90;;;;;;5078292;28;20029;-81
2023/11/21 07:15:41;;;;;;;118.53;34.47;;;8.00;99.90;;;;;;5079847;28;20024;-79
2023/11/21 07:18:07;;;;;;;110.47;33.37;;;8.00;99.90;;;;;;5078879;28;21572;-79
2023/11/21 07:20:33;;;;;;;113.70;36.23;;;8.00;99.90;;;;;;5077922;28;20056;-78
2023/11/21 07:22:59;;;;;;;126.47;37.10;;;8.10;99.90;;;;;;5079221;28;20038;-77
2023/11/21 07:25:43;;;;;;;126.87;35.97;;;8.00;99.90;;;;;;5077808;28;20028;-76
2023/11/21 07:28:08;;;;;;;114.17;32.37;;;8.00;99.90;;;;;;5078577;28;20178;-78
2023/11/21 07:30:37;;;;;;;99.40;32.57;;;8.00;99.90;;;;;;5077865;28;20036;-79
2023/11/21 07:33:03;;;;;;;93.93;32.10;;;8.10;99.90;;;;;;5074609;28;20092;-79
2023/11/21 07:35:29;;;;;;;79.63;26.50;;;8.20;99.90;;;;;;5075993;28;20047;-77
2023/11/21 07:37:58;;;;;;;78.90;28.17;;;8.30;99.90;;;;;;5074035;28;20110;-78
2023/11/21 07:40:23;;;;;;;90.03;28.70;;;8.20;99.90;;;;;;5074302;28;20032;-79
2023/11/21 07:42:51;;;;;;;96.03;28.43;;;8.20;99.90;;;;;;5086186;28;20021;-72
2023/11/21 07:45:20;;;;;;;96.97;28.83;;;8.40;99.90;;;;;;5087827;28;20040;-74
2023/11/21 07:47:50;;;;;;;93.57;28.03;;;8.30;99.90;;;;;;5082042;28;20021;-76
2023/11/21 07:50:20;;;;;;;86.17;27.97;;;8.40;99.90;;;;;;5075344;28;20020;-76
2023/11/21 07:52:46;;;;;;;93.33;28.97;;;8.50;99.90;;;;;;5077364;28;20041;-78
2023/11/21 07:55:12;;;;;;;77.37;27.30;;;8.40;99.90;;;;;;5073629;28;20063;-78
2023/11/21 07:57:38;;;;;;;92.40;28.07;;;8.40;99.90;;;;;;5076968;28;20060;-77
2023/11/21 08:00:09;;;;;;;85.73;26.33;;;8.40;99.90;;;;;;5073370;28;20089;-78
2023/11/21 08:02:35;;;;;;;100.43;28.03;;;8.50;99.90;;;;;;5077977;28;20028;-78
2023/11/21 08:05:00;;;;;;;94.07;28.13;;;8.50;99.90;;;;;;5074145;28;20028;-76
2023/11/21 08:07:26;;;;;;;92.13;27.77;;;8.50;99.90;;;;;;5074730;28;20033;-78
2023/11/21 08:09:56;;;;;;;73.03;23.60;;;8.60;99.90;;;;;;5076047;28;20639;-77
2023/11/21 08:12:22;;;;;;;87.57;27.20;;;8.60;99.90;;;;;;5075897;28;20036;-78
2023/11/21 08:14:48;;;;;;;84.17;25.93;;;8.60;99.90;;;;;;5073958;28;20100;-80
2023/11/21 08:17:14;;;;;;;75.83;26.27;;;8.70;99.90;;;;;;5075869;28;20036;-78
2023/11/21 08:19:39;;;;;;;71.93;27.63;;;8.70;99.90;;;;;;5074192;28;20120;-77
2023/11/21 08:22:08;;;;;;;76.93;31.37;;;8.70;99.90;;;;;;5076815;28;20029;-76
2023/11/21 08:24:33;;;;;;;76.13;30.93;;;8.70;99.90;;;;;;5077658;28;20185;-78
2023/11/21 08:27:05;;;;;;;68.80;30.07;;;8.60;99.90;;;;;;5076106;28;20037;-78
2023/11/21 08:29:31;;;;;;;78.80;32.77;;;8.60;99.90;;;;;;5075771;28;20064;-78
2023/11/21 08:32:08;;;;;;;71.50;29.67;;;8.60;99.90;;;;;;5076339;28;20033;-78
2023/11/21 08:34:36;;;;;;;71.80;29.47;;;8.60;99.90;;;;;;5077251;28;20021;-78
2023/11/21 08:37:05;;;;;;;79.10;31.13;;;8.50;99.90;;;;;;5072922;28;20052;-76
2023/11/21 08:39:31;;;;;;;78.80;31.33;;;8.40;99.90;;;;;;5073983;28;20043;-79
2023/11/21 08:41:58;;;;;;;82.83;31.23;;;8.60;99.90;;;;;;5071100;28;20041;-79
2023/11/21 08:44:23;;;;;;;90.83;32.37;;;8.60;99.90;;;;;;5074838;28;20032;-75
2023/11/21 08:46:50;;;;;;;79.77;31.43;;;8.70;99.90;;;;;;5077705;28;20123;-77
2023/11/21 08:49:25;;;;;;;81.47;31.67;;;8.60;99.90;;;;;;5079837;28;21311;-79
2023/11/21 08:51:54;;;;;;;75.93;32.63;;;8.70;99.90;;;;;;5078950;28;20123;-75
2023/11/21 08:54:21;;;;;;;88.27;32.77;;;8.70;99.90;;;;;;5077968;28;20017;-76
2023/11/21 08:56:47;;;;;;;78.67;32.50;;;8.80;99.90;;;;;;5078594;28;20016;-78
2023/11/21 08:59:14;;;;;;;73.23;30.53;;;8.80;99.90;;;;;;5078595;28;20036;-77
2023/11/21 09:01:42;;;;;;;70.57;31.90;;;8.90;99.90;;;;;;5078235;28;20017;-77
2023/11/21 09:04:08;;;;;;;71.13;31.53;;;8.80;99.90;;;;;;5078349;28;20086;-80
2023/11/21 09:06:35;;;;;;;76.17;32.70;;;8.90;99.90;;;;;;5078689;28;20029;-77
2023/11/21 09:09:09;;;;;;;83.90;32.83;;;8.90;99.90;;;;;;5080537;28;20025;-76
2023/11/21 09:11:37;;;;;;;82.33;32.27;;;8.90;99.90;;;;;;5079191;28;20082;-78
2023/11/21 09:14:09;;;;;;;78.13;31.43;;;9.00;99.90;;;;;;5082223;28;20029;-77
2023/11/21 09:16:35;;;;;;;80.97;33.33;;;9.20;99.90;;;;;;5080810;28;20028;-77
2023/11/21 09:19:00;;;;;;;84.97;32.60;;;9.20;99.90;;;;;;5078729;28;20035;-79
2023/11/21 09:21:27;;;;;;;72.83;31.97;;;9.20;99.90;;;;;;5094967;28;20044;-78
2023/11/21 09:23:53;;;;;;;72.20;30.13;;;9.10;99.90;;;;;;5078742;28;20028;-80
2023/11/21 09:26:19;;;;;;;74.73;32.40;;;9.00;99.90;;;;;;5081644;28;20016;-77
2023/11/21 09:28:47;;;;;;;78.40;32.57;;;9.20;99.90;;;;;;5079621;28;20036;-79
2023/11/21 09:31:22;;;;;;;78.57;32.07;;;9.10;99.90;;;;;;5078565;28;20025;-77
2023/11/21 09:33:53;;;;;;;88.73;33.03;;;9.10;99.90;;;;;;5058687;28;20068;-77
2023/11/21 09:36:22;;;;;;;74.80;31.53;;;9.20;99.90;;;;;;5056954;28;20025;-79
2023/11/21 09:38:50;;;;;;;68.77;28.83;;;9.20;99.90;;;;;;5058640;28;20116;-78
2023/11/21 09:41:27;;;;;;;70.67;30.30;;;9.20;99.90;;;;;;5058154;28;20054;-79
2023/11/21 09:43:59;;;;;;;66.97;28.80;;;9.00;99.90;;;;;;5053493;28;20036;-76
2023/11/21 09:46:27;;;;;;;71.28;28.33;;;9.10;99.90;;;;;;5057660;28;20038;-79
2023/11/21 09:48:56;;;;;;;72.40;27.93;;;9.20;99.90;;;;;;5058957;28;20017;-77
2023/11/21 09:51:40;;;;;;;;;;;;;;;;;;;;;
2023/11/21 09:54:11;;;;;;;76.53;29.30;;;9.20;99.90;;;;;;5057479;28;20120;-78
2023/11/21 09:56:40;;;;;;;84.73;29.73;;;9.30;99.90;;;;;;5056696;28;20033;-80
2023/11/21 09:59:09;;;;;;;81.07;30.33;;;9.30;99.90;;;;;;5062537;28;20060;-77
2023/11/21 10:01:39;;;;;;;77.43;28.83;;;9.30;99.90;;;;;;5057763;28;20025;-79
2023/11/21 10:04:11;;;;;;;65.17;29.07;;;9.40;99.90;;;;;;5055001;28;20039;-79
2023/11/21 10:06:41;;;;;;;79.03;30.27;;;9.50;99.90;;;;;;5071116;28;20040;-79
2023/11/21 10:09:11;;;;;;;75.37;30.37;;;9.50;99.90;;;;;;5053732;28;20044;-80
2023/11/21 10:11:43;;;;;;;92.27;31.90;;;9.50;99.90;;;;;;5048162;28;20045;-77
2023/11/21 10:14:13;;;;;;;100.47;33.97;;;9.60;99.90;;;;;;5053031;28;20052;-77
2023/11/21 10:16:41;;;;;;;87.93;29.83;;;9.50;99.90;;;;;;5050697;28;20370;-77
2023/11/21 10:19:09;;;;;;;66.53;28.73;;;9.50;99.90;;;;;;5050980;28;20048;-77
2023/11/21 10:21:36;;;;;;;87.17;28.97;;;9.40;99.90;;;;;;5056043;28;20105;-80
2023/11/21 10:24:02;;;;;;;68.20;27.57;;;9.40;99.90;;;;;;5054532;28;20410;-78
2023/11/21 10:26:28;;;;;;;92.10;29.60;;;9.40;99.90;;;;;;5052492;28;20024;-79
2023/11/21 10:28:58;;;;;;;70.17;26.13;;;9.40;99.90;;;;;;5053176;28;20032;-78
2023/11/21 10:31:26;;;;;;;68.53;24.57;;;9.40;99.90;;;;;;5056590;28;20514;-77
2023/11/21 10:33:52;;;;;;;65.80;25.13;;;9.40;99.90;;;;;;5054983;28;20041;-75
2023/11/21 10:36:28;;;;;;;66.33;23.70;;;9.50;99.90;;;;;;5056599;28;20021;-78
2023/11/21 10:38:54;;;;;;;57.53;24.63;;;9.50;99.90;;;;;;5056465;28;20033;-78
2023/11/21 10:41:25;;;;;;;58.93;24.30;;;9.60;99.90;;;;;;5054580;28;20034;-79
2023/11/21 10:43:55;;;;;;;57.67;23.17;;;9.60;99.90;;;;;;5066585;28;20029;-78
2023/11/21 10:46:23;;;;;;;75.13;26.63;;;9.50;99.90;;;;;;5056232;28;20021;-81
2023/11/21 10:48:56;;;;;;;61.27;24.20;;;9.60;99.90;;;;;;5063990;28;20017;-81
2023/11/21 10:51:24;;;;;;;64.40;26.03;;;9.60;99.90;;;;;;5071431;28;20039;-78
2023/11/21 10:54:00;;;;;;;79.67;26.10;;;9.60;99.90;;;;;;5067082;28;20026;-76
2023/11/21 10:56:27;;;;;;;68.53;24.93;;;9.50;99.90;;;;;;5072903;28;20033;-77
2023/11/21 10:58:55;;;;;;;72.40;24.43;;;9.50;99.90;;;;;;5070484;28;20020;-74
2023/11/21 11:01:23;;;;;;;64.57;25.03;;;9.50;99.90;;;;;;5070690;28;20032;-80
2023/11/21 11:03:54;;;;;;;64.57;24.23;;;9.60;99.90;;;;;;5069974;28;20025;-82
2023/11/21 11:06:21;;;;;;;66.67;25.47;;;9.60;99.90;;;;;;5065319;28;20044;-78
2023/11/21 11:08:49;;;;;;;72.63;24.80;;;9.50;99.90;;;;;;5062390;28;20040;-78
2023/11/21 11:11:15;;;;;;;59.27;23.73;;;9.50;99.90;;;;;;5069652;28;20021;-83
2023/11/21 11:13:46;;;;;;;64.87;25.67;;;9.70;99.90;;;;;;5061012;28;20044;-82
2023/11/21 11:16:17;;;;;;;68.93;25.80;;;9.70;99.90;;;;;;5071250;28;20032;-79
2023/11/21 11:18:44;;;;;;;59.00;23.70;;;9.80;99.90;;;;;;5067554;28;20013;-81
2023/11/21 11:21:43;;;;;;;60.90;25.47;;;9.80;99.90;;;;;;5070587;28;20032;-81
2023/11/21 11:24:32;;;;;;;66.80;24.43;;;9.90;99.90;;;;;;5061230;28;20472;-78
2023/11/21 11:27:11;;;;;;;64.93;25.10;;;10.00;99.90;;;;;;5060670;28;20074;-80
2023/11/21 11:30:03;;;;;;;55.73;23.47;;;10.00;99.90;;;;;;5064188;28;20029;-82
2023/11/21 11:32:59;;;;;;;61.13;24.00;;;9.80;99.90;;;;;;5060000;28;20029;-81
2023/11/21 11:35:51;;;;;;;48.20;20.20;;;9.90;99.90;;;;;;5055754;28;20032;-82
2023/11/21 11:38:18;;;;;;;44.45;19.45;;;10.00;99.90;;;;;;5085759;28;20563;-81
2023/11/21 11:40:47;;;;;;;41.57;17.37;;;10.00;99.90;;;;;;5067120;28;20029;-82
2023/11/21 11:43:13;;;;;;;45.63;18.13;;;9.80;99.90;;;;;;5083237;28;20036;-81
2023/11/21 11:45:42;;;;;;;51.07;18.37;;;9.90;99.90;;;;;;5071312;28;20031;-81
2023/11/21 11:48:14;;;;;;;43.63;17.27;;;10.00;99.90;;;;;;5066624;28;20028;-79
2023/11/21 11:51:03;;;;;;;37.57;15.23;;;10.00;99.90;;;;;;5075207;28;20104;-80
2023/11/21 11:53:35;;;;;;;40.33;16.17;;;10.00;99.90;;;;;;5070797;28;20277;-82
2023/11/21 11:56:25;;;;;;;35.35;16.30;;;10.00;99.90;;;;;;5090089;28;20033;-81
2023/11/21 11:58:52;;;;;;;45.80;17.60;;;10.00;99.90;;;;;;5063279;28;20124;-82
2023/11/21 12:01:22;;;;;;;47.30;18.87;;;9.90;99.90;;;;;;5069502;28;20021;-82
2023/11/21 12:04:22;;;;;;;43.57;16.63;;;10.00;99.90;;;;;;5069440;28;20032;-81
2023/11/21 12:06:53;;;;;;;44.97;17.10;;;10.20;99.90;;;;;;5069638;28;20062;-81
2023/11/21 12:09:21;;;;;;;49.33;17.67;;;10.10;99.90;;;;;;5084447;28;20043;-80
2023/11/21 12:11:50;;;;;;;50.97;18.87;;;10.00;99.90;;;;;;5058782;28;20044;-80
2023/11/21 12:14:16;;;;;;;47.07;17.13;;;10.10;99.90;;;;;;5066422;28;20051;-82
2023/11/21 12:16:43;;;;;;;45.67;17.10;;;10.10;99.90;;;;;;5065093;28;20028;-80
2023/11/21 12:19:14;;;;;;;;;;;9.90;99.90;;;;;;5068079;28;20029;-76
2023/11/21 12:21:41;;;;;;;41.97;17.03;;;10.00;99.90;;;;;;5066607;28;19912;-79
2023/11/21 12:24:17;;;;;;;44.60;18.57;;;10.00;99.90;;;;;;5061905;28;20053;-80
2023/11/21 12:26:43;;;;;;;44.87;17.50;;;10.00;99.90;;;;;;5067614;28;20091;-80
2023/11/21 12:29:10;;;;;;;42.90;17.37;;;10.00;99.90;;;;;;5063256;28;20053;-81
2023/11/21 12:31:36;;;;;;;40.33;18.20;;;10.10;99.90;;;;;;5067251;28;20036;-80
2023/11/21 12:34:02;;;;;;;37.43;16.73;;;10.20;99.90;;;;;;5063855;28;20047;-80
2023/11/21 12:36:30;;;;;;;47.70;19.07;;;10.40;99.90;;;;;;5061231;28;20029;-80
2023/11/21 12:38:55;;;;;;;42.13;16.67;;;10.40;99.90;;;;;;5061214;28;20029;-80
2023/11/21 12:41:29;;;;;;;46.13;18.37;;;10.60;99.90;;;;;;5063301;28;20025;-79
2023/11/21 12:43:57;;;;;;;40.47;18.00;;;10.60;99.90;;;;;;5082656;28;20026;-80
2023/11/21 12:46:25;;;;;;;46.87;17.37;;;10.60;99.90;;;;;;5084912;28;20046;-80
2023/11/21 12:48:54;;;;;;;38.33;17.17;;;10.70;99.90;;;;;;5069405;28;20067;-80